createdAt,value
2022-10-23T00:01:31.195Z,6.38
2022-10-23T00:04:00.101Z,5.73
2022-10-23T00:06:28.051Z,6.18
2022-10-23T00:08:55.162Z,6.40
2022-10-23T00:11:24.415Z,5.53
2022-10-23T00:13:53.219Z,5.63
2022-10-23T00:16:19.538Z,6.00
2022-10-23T00:18:45.851Z,6.63
2022-10-23T00:21:14.049Z,6.32
2022-10-23T00:23:41.092Z,6.30
2022-10-23T00:26:08.375Z,5.75
2022-10-23T00:28:34.930Z,5.77
2022-10-23T00:31:03.004Z,5.65
2022-10-23T00:33:29.484Z,7.00
2022-10-23T00:35:55.952Z,5.78
2022-10-23T00:38:22.535Z,5.55
2022-10-23T00:43:22.365Z,5.85
2022-10-23T00:45:49.039Z,6.50
2022-10-23T00:48:16.204Z,6.05
2022-10-23T00:50:43.009Z,6.38
2022-10-23T00:53:11.675Z,5.43
2022-10-23T00:55:39.555Z,5.80
2022-10-23T00:58:06.041Z,5.57
2022-10-23T01:00:52.404Z,5.50
2022-10-23T01:03:22.904Z,5.45
2022-10-23T01:06:12.582Z,5.57
2022-10-23T01:08:50.592Z,5.65
2022-10-23T01:11:20.488Z,6.13
2022-10-23T01:14:22.967Z,5.20
2022-10-23T01:16:55.235Z,5.05
2022-10-23T01:19:46.772Z,5.33
2022-10-23T01:22:44.431Z,5.10
2022-10-23T01:25:38.746Z,5.70
2022-10-23T01:28:11.754Z,5.28
2022-10-23T01:30:42.791Z,4.95
2022-10-23T01:33:25.641Z,5.67
2022-10-23T01:36:16.567Z,4.85
2022-10-23T01:38:56.251Z,5.20
2022-10-23T01:41:36.307Z,5.10
2022-10-23T01:44:17.614Z,5.28
2022-10-23T01:46:46.828Z,4.87
2022-10-23T01:49:14.850Z,5.57
2022-10-23T01:51:45.543Z,5.55
2022-10-23T01:54:14.256Z,5.72
2022-10-23T01:56:44.911Z,5.32
2022-10-23T01:59:18.471Z,5.50
2022-10-23T02:01:49.325Z,5.28
2022-10-23T02:04:23.504Z,5.85
2022-10-23T02:06:49.895Z,5.07
2022-10-23T02:09:16.410Z,5.32
2022-10-23T02:12:21.203Z,5.10
2022-10-23T02:15:00.477Z,5.38
2022-10-23T02:17:42.446Z,5.57
2022-10-23T02:20:19.718Z,4.97
2022-10-23T02:22:56.595Z,4.78
2022-10-23T02:25:33.478Z,5.23
2022-10-23T02:28:06.005Z,5.20
2022-10-23T02:30:35.660Z,5.57
2022-10-23T02:33:05.031Z,5.38
2022-10-23T02:35:31.607Z,5.90
2022-10-23T02:38:00.764Z,5.60
2022-10-23T02:40:41.749Z,5.13
2022-10-23T02:43:24.499Z,5.63
2022-10-23T02:46:02.451Z,6.03
2022-10-23T02:48:43.945Z,5.90
2022-10-23T02:51:18.788Z,4.70
2022-10-23T02:54:01.288Z,5.78
2022-10-23T02:56:36.642Z,5.35
2022-10-23T02:59:13.065Z,5.13
2022-10-23T03:01:49.592Z,5.15
2022-10-23T03:04:19.008Z,4.77
2022-10-23T03:06:45.791Z,5.72
2022-10-23T03:09:12.178Z,5.22
2022-10-23T03:11:38.515Z,6.07
2022-10-23T03:14:04.962Z,5.03
2022-10-23T03:16:31.295Z,5.93
2022-10-23T03:18:57.682Z,5.32
2022-10-23T03:21:24.111Z,5.70
2022-10-23T03:23:50.447Z,5.88
2022-10-23T03:26:17.108Z,5.40
2022-10-23T03:28:43.479Z,5.87
2022-10-23T03:31:09.880Z,5.47
2022-10-23T03:33:36.300Z,5.68
2022-10-23T03:36:02.837Z,5.40
2022-10-23T03:38:29.205Z,5.35
2022-10-23T03:40:55.602Z,5.50
2022-10-23T03:43:21.903Z,5.60
2022-10-23T03:45:48.313Z,5.22
2022-10-23T03:48:14.804Z,5.20
2022-10-23T03:50:41.117Z,4.80
2022-10-23T03:53:07.454Z,5.10
2022-10-23T03:55:33.777Z,4.97
2022-10-23T03:58:00.127Z,4.78
2022-10-23T04:00:26.434Z,4.47
2022-10-23T04:02:52.768Z,4.35
2022-10-23T04:05:19.099Z,4.97
2022-10-23T04:07:45.448Z,4.70
2022-10-23T04:10:11.810Z,4.53
2022-10-23T04:12:38.119Z,5.00
2022-10-23T04:15:04.986Z,4.82
2022-10-23T04:17:31.367Z,4.43
2022-10-23T04:19:57.814Z,4.22
2022-10-23T04:22:26.142Z,4.78
2022-10-23T04:24:54.680Z,4.63
2022-10-23T04:27:21.031Z,4.60
2022-10-23T04:29:47.401Z,5.27
2022-10-23T04:32:13.750Z,4.78
2022-10-23T04:34:40.059Z,4.25
2022-10-23T04:37:06.386Z,4.80
2022-10-23T04:39:32.692Z,5.40
2022-10-23T04:41:59.016Z,4.50
2022-10-23T04:44:25.320Z,5.22
2022-10-23T04:46:51.659Z,5.15
2022-10-23T04:49:18.004Z,4.97
2022-10-23T04:51:44.380Z,4.10
2022-10-23T04:54:11.860Z,5.20
2022-10-23T04:56:38.316Z,4.90
2022-10-23T05:01:32.054Z,4.20
2022-10-23T05:03:58.447Z,4.20
2022-10-23T05:06:24.808Z,4.20
2022-10-23T05:08:51.208Z,4.30
2022-10-23T05:11:17.517Z,4.10
2022-10-23T05:13:44.054Z,4.43
2022-10-23T05:16:12.892Z,4.20
2022-10-23T05:18:46.592Z,4.97
2022-10-23T05:21:23.417Z,4.15
2022-10-23T05:23:50.680Z,4.35
2022-10-23T05:26:17.096Z,4.00
2022-10-23T05:28:43.412Z,4.25
2022-10-23T05:31:09.851Z,3.97
2022-10-23T05:33:36.928Z,5.00
2022-10-23T05:36:03.676Z,4.70
2022-10-23T05:38:33.517Z,3.78
2022-10-23T05:41:00.020Z,4.70
2022-10-23T05:43:27.264Z,3.90
2022-10-23T05:45:53.955Z,4.03
2022-10-23T05:48:29.754Z,4.93
2022-10-23T05:51:07.561Z,4.60
2022-10-23T05:53:36.210Z,5.10
2022-10-23T05:56:08.657Z,4.43
2022-10-23T05:58:35.108Z,4.50
2022-10-23T06:01:08.869Z,4.97
2022-10-23T06:03:36.851Z,4.93
2022-10-23T06:06:04.026Z,4.47
2022-10-23T06:08:31.459Z,4.10
2022-10-23T06:10:57.839Z,4.47
2022-10-23T06:13:24.203Z,4.95
2022-10-23T06:15:50.556Z,4.88
2022-10-23T06:18:16.948Z,4.55
2022-10-23T06:20:43.259Z,5.17
2022-10-23T06:23:09.571Z,4.38
2022-10-23T06:25:35.893Z,4.18
2022-10-23T06:28:02.239Z,4.47
2022-10-23T06:30:28.721Z,4.57
2022-10-23T06:32:55.513Z,5.00
2022-10-23T06:35:21.840Z,4.30
2022-10-23T06:37:48.171Z,4.50
2022-10-23T06:40:14.608Z,4.07
2022-10-23T06:42:41.174Z,4.50
2022-10-23T06:45:07.973Z,4.50
2022-10-23T06:47:34.534Z,4.50
2022-10-23T06:50:00.909Z,4.63
2022-10-23T06:52:47.779Z,4.22
2022-10-23T06:55:14.842Z,4.60
2022-10-23T06:57:41.862Z,4.20
2022-10-23T07:00:09.547Z,4.28
2022-10-23T07:02:36.509Z,4.75
2022-10-23T07:05:03.250Z,4.22
2022-10-23T07:07:30.658Z,4.25
2022-10-23T07:09:56.980Z,4.83
2022-10-23T07:12:23.348Z,3.83
2022-10-23T07:14:49.691Z,4.65
2022-10-23T07:17:16.102Z,4.38
2022-10-23T07:19:42.466Z,4.43
2022-10-23T07:22:10.745Z,4.23
2022-10-23T07:24:40.192Z,4.90
2022-10-23T07:27:06.910Z,4.07
2022-10-23T07:29:33.797Z,4.20
2022-10-23T07:32:04.394Z,4.38
2022-10-23T07:34:31.995Z,4.70
2022-10-23T07:36:58.316Z,4.30
2022-10-23T07:39:24.649Z,4.07
2022-10-23T07:41:50.953Z,4.60
2022-10-23T07:44:17.543Z,4.38
2022-10-23T07:46:43.854Z,4.87
2022-10-23T07:49:11.187Z,4.60
2022-10-23T07:51:37.520Z,4.30
2022-10-23T07:54:03.937Z,4.63
2022-10-23T07:56:31.329Z,5.20
2022-10-23T07:58:58.019Z,4.33
2022-10-23T08:01:38.443Z,4.65
2022-10-23T08:04:05.699Z,4.38
2022-10-23T08:06:35.322Z,4.57
2022-10-23T08:09:05.384Z,4.90
2022-10-23T08:11:35.404Z,4.33
2022-10-23T08:14:04.559Z,4.75
2022-10-23T08:16:32.052Z,4.15
2022-10-23T08:18:58.480Z,4.30
2022-10-23T08:21:24.821Z,3.97
2022-10-23T08:23:56.812Z,4.20
2022-10-23T08:26:24.601Z,3.75
2022-10-23T08:28:54.208Z,3.90
2022-10-23T08:31:21.621Z,4.57
2022-10-23T08:36:22.070Z,4.03
2022-10-23T08:38:48.692Z,4.53
2022-10-23T08:41:25.261Z,4.20
2022-10-23T08:43:58.496Z,4.05
2022-10-23T08:46:30.032Z,4.38
2022-10-23T08:49:20.513Z,4.87
2022-10-23T08:51:50.330Z,4.82
2022-10-23T08:54:28.463Z,4.45
2022-10-23T08:57:03.372Z,5.60
2022-10-23T08:59:56.241Z,4.97
2022-10-23T09:02:30.431Z,5.10
2022-10-23T09:04:58.486Z,4.40
2022-10-23T09:07:43.266Z,4.35
2022-10-23T09:10:51.542Z,4.50
2022-10-23T09:13:48.832Z,4.50
2022-10-23T09:16:30.361Z,4.20
2022-10-23T09:18:57.973Z,5.40
2022-10-23T09:21:28.805Z,4.47
2022-10-23T09:23:56.040Z,3.63
2022-10-23T09:26:22.491Z,3.58
2022-10-23T09:28:51.452Z,3.80
2022-10-23T09:31:19.285Z,3.10
2022-10-23T09:34:01.415Z,3.58
2022-10-23T09:36:29.300Z,3.55
2022-10-23T09:38:58.841Z,3.00
2022-10-23T09:41:29.770Z,3.07
2022-10-23T09:44:17.473Z,3.10
2022-10-23T09:46:46.823Z,2.75
2022-10-23T09:49:23.771Z,2.97
2022-10-23T09:51:54.557Z,2.90
2022-10-23T09:54:24.056Z,2.90
2022-10-23T09:56:52.999Z,2.75
2022-10-23T09:59:27.260Z,3.08
2022-10-23T10:01:57.260Z,2.90
2022-10-23T10:04:38.292Z,2.90
2022-10-23T10:07:17.730Z,2.73
2022-10-23T10:09:44.020Z,3.55
2022-10-23T10:12:28.674Z,3.20
2022-10-23T10:15:04.208Z,3.67
2022-10-23T10:17:43.429Z,3.40
2022-10-23T10:20:25.545Z,3.20
2022-10-23T10:23:00.731Z,2.95
2022-10-23T10:25:49.869Z,2.90
2022-10-23T10:28:37.556Z,2.67
2022-10-23T10:31:37.949Z,2.85
2022-10-23T10:34:14.273Z,3.07
2022-10-23T10:36:55.372Z,2.45
2022-10-23T10:39:37.906Z,2.65
2022-10-23T10:43:01.713Z,2.40
2022-10-23T10:45:40.886Z,2.28
2022-10-23T10:48:31.325Z,2.40
2022-10-23T10:51:10.657Z,2.10
2022-10-23T10:53:55.678Z,2.00
2022-10-23T10:56:25.131Z,2.38
2022-10-23T10:58:56.411Z,2.40
2022-10-23T11:01:35.034Z,2.60
2022-10-23T11:04:23.472Z,1.83
2022-10-23T11:06:53.821Z,2.10
2022-10-23T11:09:22.143Z,2.00
2022-10-23T11:11:49.055Z,2.10
2022-10-23T11:14:24.090Z,2.10
2022-10-23T11:17:16.868Z,2.33
2022-10-23T11:20:00.911Z,2.13
2022-10-23T11:23:12.496Z,2.47
2022-10-23T11:26:08.297Z,2.20
2022-10-23T11:28:53.832Z,2.07
2022-10-23T11:31:51.559Z,2.25
2022-10-23T11:34:54.944Z,2.40
2022-10-23T11:37:22.896Z,1.98
2022-10-23T11:40:04.141Z,2.17
2022-10-23T11:42:33.901Z,2.40
2022-10-23T11:45:00.503Z,2.47
2022-10-23T11:47:39.933Z,2.45
2022-10-23T11:50:06.590Z,2.05
2022-10-23T11:52:38.749Z,2.03
2022-10-23T11:55:29.326Z,1.90
2022-10-23T11:58:04.850Z,2.05
2022-10-23T12:00:33.862Z,1.92
2022-10-23T12:03:01.714Z,2.42
2022-10-23T12:05:40.405Z,1.80
2022-10-23T12:08:22.022Z,2.00
2022-10-23T12:10:55.109Z,1.90
2022-10-23T12:13:38.572Z,1.67
2022-10-23T12:16:07.507Z,1.55
2022-10-23T12:18:44.403Z,2.13
2022-10-23T12:24:03.567Z,2.05
2022-10-23T12:26:54.189Z,1.45
2022-10-23T12:29:46.736Z,1.92
2022-10-23T12:32:34.488Z,1.80
2022-10-23T12:35:25.765Z,1.73
2022-10-23T12:38:14.912Z,1.65
2022-10-23T12:40:45.578Z,1.80
2022-10-23T12:43:32.905Z,1.70
2022-10-23T12:46:21.870Z,1.55
2022-10-23T12:48:50.488Z,1.80
2022-10-23T12:51:34.641Z,1.90
2022-10-23T12:54:02.952Z,2.05
2022-10-23T12:56:35.505Z,1.67
2022-10-23T12:59:02.660Z,1.75
2022-10-23T13:01:31.535Z,1.80
2022-10-23T13:04:02.548Z,1.92
2022-10-23T13:06:29.283Z,1.80
2022-10-23T13:08:57.093Z,1.95
2022-10-23T13:11:25.665Z,1.67
2022-10-23T13:13:52.595Z,1.57
2022-10-23T13:16:22.158Z,1.70
2022-10-23T13:18:48.957Z,2.00
2022-10-23T13:21:23.737Z,2.15
2022-10-23T13:23:51.529Z,2.03
2022-10-23T13:26:32.311Z,2.10
2022-10-23T13:29:00.696Z,1.70
2022-10-23T13:31:35.343Z,1.77
2022-10-23T13:34:01.650Z,1.85
2022-10-23T13:36:30.541Z,2.60
2022-10-23T13:39:09.064Z,1.53
2022-10-23T13:41:40.881Z,1.58
2022-10-23T13:44:07.395Z,1.40
2022-10-23T13:46:33.716Z,1.60
2022-10-23T13:49:00.157Z,1.92
2022-10-23T13:51:32.445Z,1.80
2022-10-23T13:53:58.836Z,1.80
2022-10-23T13:56:27.540Z,1.52
2022-10-23T13:58:54.256Z,1.58
2022-10-23T14:01:24.556Z,1.55
2022-10-23T14:03:52.388Z,1.80
2022-10-23T14:06:18.732Z,1.90
2022-10-23T14:08:45.595Z,1.80
2022-10-23T14:13:41.702Z,1.65
2022-10-23T14:16:11.464Z,1.60
2022-10-23T14:18:37.812Z,1.88
2022-10-23T14:21:06.377Z,1.92
2022-10-23T14:23:32.819Z,1.80
2022-10-23T14:26:11.469Z,1.45
2022-10-23T14:28:38.410Z,2.00
2022-10-23T14:31:23.128Z,1.85
2022-10-23T14:33:55.933Z,1.92
2022-10-23T14:36:23.276Z,1.67
2022-10-23T14:38:53.569Z,1.67
2022-10-23T14:41:21.841Z,3.07
2022-10-23T14:43:48.211Z,1.83
2022-10-23T14:46:17.147Z,1.70
2022-10-23T14:48:46.210Z,1.92
2022-10-23T14:51:28.592Z,1.90
2022-10-23T14:54:01.693Z,1.67
2022-10-23T14:56:34.069Z,1.65
2022-10-23T14:59:03.786Z,1.90
2022-10-23T15:01:36.561Z,1.60
2022-10-23T15:04:03.375Z,1.50
2022-10-23T15:06:29.947Z,1.50
2022-10-23T15:08:56.329Z,1.85
2022-10-23T15:11:24.221Z,1.88
2022-10-23T15:13:50.861Z,1.65
2022-10-23T15:16:17.707Z,2.10
2022-10-23T15:18:44.009Z,1.77
2022-10-23T15:21:10.453Z,2.08
2022-10-23T15:23:42.208Z,2.00
2022-10-23T15:26:12.633Z,1.70
2022-10-23T15:28:39.068Z,2.25
2022-10-23T15:31:06.311Z,2.20
2022-10-23T15:33:32.620Z,2.08
2022-10-23T15:35:58.962Z,2.42
2022-10-23T15:38:26.039Z,2.03
2022-10-23T15:40:58.259Z,2.35
2022-10-23T15:43:24.578Z,2.00
2022-10-23T15:45:50.906Z,2.22
2022-10-23T15:48:17.365Z,2.22
2022-10-23T15:50:43.743Z,2.30
2022-10-23T15:53:10.104Z,2.30
2022-10-23T15:55:36.651Z,2.57
2022-10-23T15:58:04.834Z,2.05
2022-10-23T16:03:06.984Z,2.00
2022-10-23T16:05:33.320Z,2.28
2022-10-23T16:07:59.716Z,2.30
2022-10-23T16:10:26.074Z,1.92
2022-10-23T16:12:52.520Z,2.38
2022-10-23T16:15:18.902Z,2.80
2022-10-23T16:17:45.644Z,2.65
2022-10-23T16:20:12.235Z,2.50
2022-10-23T16:22:41.398Z,2.63
2022-10-23T16:25:10.726Z,2.60
2022-10-23T16:27:37.056Z,2.72
2022-10-23T16:30:06.127Z,2.67
2022-10-23T16:32:32.527Z,2.60
2022-10-23T16:34:58.830Z,2.13
2022-10-23T16:37:25.168Z,2.25
2022-10-23T16:39:51.495Z,2.33
2022-10-23T16:44:44.136Z,2.50
2022-10-23T16:47:10.694Z,2.63
2022-10-23T16:49:37.087Z,2.60
2022-10-23T16:52:03.463Z,2.47
2022-10-23T16:54:29.807Z,2.30
2022-10-23T16:56:56.158Z,2.47
2022-10-23T16:59:22.483Z,2.30
2022-10-23T17:01:48.984Z,2.35
2022-10-23T17:04:15.431Z,2.40
2022-10-23T17:06:41.880Z,2.25
2022-10-23T17:09:08.197Z,2.00
2022-10-23T17:11:39.871Z,2.65
2022-10-23T17:14:11.156Z,2.33
2022-10-23T17:16:41.217Z,2.30
2022-10-23T17:19:20.963Z,2.40
2022-10-23T17:21:54.645Z,2.00
2022-10-23T17:24:21.699Z,2.22
2022-10-23T17:26:48.453Z,2.35
2022-10-23T17:29:15.395Z,2.03
2022-10-23T17:31:45.089Z,2.95
2022-10-23T17:34:13.945Z,2.23
2022-10-23T17:36:43.663Z,2.17
2022-10-23T17:39:12.183Z,2.50
2022-10-23T17:41:38.993Z,2.22
2022-10-23T17:44:05.433Z,2.10
2022-10-23T17:46:32.131Z,1.90
2022-10-23T17:48:59.973Z,1.80
2022-10-23T17:51:30.461Z,2.17
2022-10-23T17:54:00.828Z,1.77
2022-10-23T17:56:29.688Z,2.00
2022-10-23T17:59:00.852Z,1.73
2022-10-23T18:01:29.069Z,1.85
2022-10-23T18:03:56.880Z,2.10
2022-10-23T18:06:29.548Z,1.92
2022-10-23T18:08:56.372Z,1.63
2022-10-23T18:11:25.299Z,2.10
2022-10-23T18:13:52.480Z,2.25
2022-10-23T18:16:19.817Z,2.10
2022-10-23T18:18:51.800Z,1.90
2022-10-23T18:21:20.273Z,1.95
2022-10-23T18:23:47.185Z,2.20
2022-10-23T18:26:34.812Z,2.10
2022-10-23T18:29:03.391Z,1.98
2022-10-23T18:31:30.269Z,1.85
2022-10-23T18:33:58.685Z,2.10
2022-10-23T18:36:29.049Z,1.60
2022-10-23T18:41:28.023Z,1.90
2022-10-23T18:43:54.710Z,1.95
2022-10-23T18:46:21.812Z,2.38
2022-10-23T18:48:50.634Z,2.30
2022-10-23T18:51:19.850Z,2.28
2022-10-23T18:53:46.945Z,2.03
2022-10-23T18:56:22.941Z,2.03
2022-10-23T18:58:57.535Z,2.00
2022-10-23T19:01:26.841Z,2.10
2022-10-23T19:03:54.315Z,2.05
2022-10-23T19:06:22.644Z,2.17
2022-10-23T19:08:49.704Z,1.90
2022-10-23T19:11:20.975Z,2.28
2022-10-23T19:13:47.417Z,1.90
2022-10-23T19:16:34.449Z,2.17
2022-10-23T19:19:15.347Z,2.30
2022-10-23T19:21:42.450Z,2.15
2022-10-23T19:24:14.475Z,2.08
2022-10-23T19:26:42.576Z,1.80
2022-10-23T19:29:13.135Z,2.70
2022-10-23T19:31:43.126Z,1.83
2022-10-23T19:34:09.497Z,1.90
2022-10-23T19:36:35.965Z,2.10
2022-10-23T19:39:02.276Z,2.00
2022-10-23T19:41:30.582Z,2.05
2022-10-23T19:43:56.895Z,2.33
2022-10-23T19:46:23.224Z,2.08
2022-10-23T19:48:49.598Z,2.45
2022-10-23T19:51:16.000Z,1.80
2022-10-23T19:53:42.607Z,2.00
2022-10-23T19:56:11.028Z,2.22
2022-10-23T19:58:38.050Z,2.17
2022-10-23T20:01:14.502Z,1.83
2022-10-23T20:03:42.598Z,2.40
2022-10-23T20:06:10.672Z,2.10
2022-10-23T20:08:37.232Z,2.53
2022-10-23T20:11:03.726Z,2.05
2022-10-23T20:13:30.353Z,2.03
2022-10-23T20:15:56.677Z,2.30
2022-10-23T20:18:23.095Z,1.85
2022-10-23T20:20:49.485Z,1.90
2022-10-23T20:23:15.826Z,2.05
2022-10-23T20:25:42.199Z,1.70
2022-10-23T20:28:10.336Z,1.50
2022-10-23T20:30:41.176Z,1.20
2022-10-23T20:33:07.497Z,1.13
2022-10-23T20:35:41.416Z,1.15
2022-10-23T20:38:08.483Z,1.10
2022-10-23T20:40:34.903Z,0.80
2022-10-23T20:43:01.421Z,0.73
2022-10-23T20:45:27.827Z,0.70
2022-10-23T20:47:54.156Z,0.75
2022-10-23T20:50:20.821Z,0.93
2022-10-23T20:52:50.240Z,0.60
2022-10-23T20:55:16.711Z,0.77
2022-10-23T20:57:43.171Z,0.60
2022-10-23T21:00:11.297Z,0.63
2022-10-23T21:02:37.755Z,0.70
2022-10-23T21:05:04.380Z,0.60
2022-10-23T21:07:30.718Z,0.60
2022-10-23T21:09:57.120Z,1.08
2022-10-23T21:12:23.423Z,0.60
2022-10-23T21:14:49.765Z,0.55
2022-10-23T21:17:17.719Z,0.73
2022-10-23T21:19:44.246Z,0.47
2022-10-23T21:22:10.620Z,0.43
2022-10-23T21:24:36.935Z,0.52
2022-10-23T21:27:03.292Z,0.50
2022-10-23T21:29:29.654Z,0.50
2022-10-23T21:31:58.678Z,0.43
2022-10-23T21:34:26.249Z,0.35
2022-10-23T21:39:39.373Z,0.40
2022-10-23T21:42:05.860Z,0.40
2022-10-23T21:44:32.412Z,0.50
2022-10-23T21:46:58.776Z,0.40
2022-10-23T21:49:25.101Z,0.50
2022-10-23T21:51:51.444Z,0.40
2022-10-23T21:54:17.792Z,0.40
2022-10-23T21:56:49.435Z,0.40
2022-10-23T21:59:18.134Z,0.52
2022-10-23T22:01:45.943Z,0.50
2022-10-23T22:04:14.351Z,0.47
2022-10-23T22:06:42.857Z,0.50
2022-10-23T22:09:13.606Z,0.50
2022-10-23T22:11:40.746Z,0.40
2022-10-23T22:14:07.390Z,0.70
2022-10-23T22:16:34.002Z,0.50
2022-10-23T22:19:00.360Z,0.70
2022-10-23T22:21:29.441Z,0.40
2022-10-23T22:23:58.234Z,0.50
2022-10-23T22:26:26.235Z,0.73
2022-10-23T22:28:54.993Z,0.60
2022-10-23T22:31:24.536Z,0.60
2022-10-23T22:33:51.664Z,0.77
2022-10-23T22:36:18.617Z,0.50
2022-10-23T22:38:45.206Z,0.70
2022-10-23T22:41:11.899Z,0.93
2022-10-23T22:43:38.360Z,0.77
2022-10-23T22:46:14.015Z,0.70
2022-10-23T22:48:40.721Z,0.60
2022-10-23T22:51:09.129Z,1.00
2022-10-23T22:53:35.676Z,0.60
2022-10-23T22:56:06.128Z,1.03
2022-10-23T22:58:32.500Z,0.70
2022-10-23T23:01:21.164Z,0.85
2022-10-23T23:03:48.107Z,0.95
2022-10-23T23:06:15.369Z,0.90
2022-10-23T23:08:42.268Z,0.80
2022-10-23T23:11:12.075Z,1.00
2022-10-23T23:13:39.105Z,0.65
2022-10-23T23:16:05.749Z,0.63
2022-10-23T23:18:33.340Z,0.60
2022-10-23T23:21:04.300Z,0.90
2022-10-23T23:23:30.971Z,1.15
2022-10-23T23:25:57.393Z,1.05
2022-10-23T23:28:24.024Z,0.80
2022-10-23T23:30:50.800Z,0.60
2022-10-23T23:33:22.175Z,0.73
2022-10-23T23:35:48.551Z,0.60
2022-10-23T23:38:14.887Z,0.95
2022-10-23T23:40:49.265Z,1.05
2022-10-23T23:43:15.585Z,0.85
2022-10-23T23:45:41.931Z,1.10
2022-10-23T23:48:08.275Z,1.30
2022-10-23T23:50:34.608Z,0.90
2022-10-23T23:53:00.976Z,1.40
2022-10-23T23:55:27.330Z,1.52
2022-10-23T23:57:53.689Z,1.10
